createdAt,value
2023-06-16T00:01:16.334Z,52.43
2023-06-16T00:03:45.256Z,53.90
2023-06-16T00:06:15.701Z,54.82
2023-06-16T00:08:48.259Z,52.35
2023-06-16T00:11:16.880Z,52.59
2023-06-16T00:13:46.512Z,52.17
2023-06-16T00:16:14.649Z,54.64
2023-06-16T00:18:45.407Z,53.09
2023-06-16T00:21:15.467Z,55.88
2023-06-16T00:23:43.030Z,53.26
2023-06-16T00:26:10.323Z,56.69
2023-06-16T00:28:40.313Z,56.14
2023-06-16T00:31:07.467Z,57.72
2023-06-16T00:33:36.943Z,58.65
2023-06-16T00:36:04.351Z,58.27
2023-06-16T00:38:31.677Z,57.42
2023-06-16T00:40:58.851Z,55.38
2023-06-16T00:43:26.015Z,54.88
2023-06-16T00:45:53.502Z,54.66
2023-06-16T00:48:22.263Z,55.54
2023-06-16T00:50:49.902Z,56.53
2023-06-16T00:53:18.190Z,57.57
2023-06-16T00:55:45.730Z,56.10
2023-06-16T00:58:13.029Z,55.57
2023-06-16T01:00:40.208Z,56.63
2023-06-16T01:03:10.201Z,55.81
2023-06-16T01:05:38.105Z,55.74
2023-06-16T01:08:18.065Z,55.36
2023-06-16T01:11:18.663Z,55.17
2023-06-16T01:14:23.746Z,55.69
2023-06-16T01:16:54.936Z,55.61
2023-06-16T01:19:38.809Z,56.03
2023-06-16T01:22:41.277Z,56.11
2023-06-16T01:25:15.299Z,55.98
2023-06-16T01:27:48.991Z,56.11
2023-06-16T01:30:17.947Z,56.09
2023-06-16T01:32:48.592Z,56.28
2023-06-16T01:35:17.445Z,56.36
2023-06-16T01:37:46.173Z,56.39
2023-06-16T01:40:15.078Z,56.57
2023-06-16T01:42:45.315Z,56.60
2023-06-16T01:45:15.750Z,56.38
2023-06-16T01:47:45.287Z,56.99
2023-06-16T01:50:13.729Z,56.50
2023-06-16T01:52:40.975Z,56.91
2023-06-16T01:55:10.817Z,58.11
2023-06-16T01:57:39.668Z,57.78
2023-06-16T02:00:28.703Z,56.89
2023-06-16T02:03:10.066Z,57.00
2023-06-16T02:05:42.126Z,57.97
2023-06-16T02:08:10.584Z,57.25
2023-06-16T02:10:38.628Z,57.07
2023-06-16T02:13:06.339Z,57.10
2023-06-16T02:15:33.776Z,57.66
2023-06-16T02:18:01.258Z,58.37
2023-06-16T02:20:28.861Z,58.35
2023-06-16T02:22:56.264Z,58.33
2023-06-16T02:25:23.758Z,58.00
2023-06-16T02:27:50.971Z,57.90
2023-06-16T02:30:18.871Z,57.60
2023-06-16T02:33:01.847Z,58.86
2023-06-16T02:35:31.626Z,60.68
2023-06-16T02:37:58.831Z,60.09
2023-06-16T02:40:28.715Z,59.48
2023-06-16T02:42:56.125Z,58.44
2023-06-16T02:45:23.290Z,57.98
2023-06-16T02:47:50.613Z,58.90
2023-06-16T02:50:18.321Z,59.42
2023-06-16T02:52:46.102Z,58.74
2023-06-16T02:55:17.110Z,59.97
2023-06-16T02:57:53.332Z,59.11
2023-06-16T03:00:21.028Z,59.71
2023-06-16T03:03:23.897Z,59.72
2023-06-16T03:06:03.548Z,58.37
2023-06-16T03:08:33.567Z,57.91
2023-06-16T03:11:00.810Z,57.31
2023-06-16T03:13:34.381Z,54.53
2023-06-16T03:16:02.124Z,48.27
2023-06-16T03:18:29.874Z,47.42
2023-06-16T03:20:59.207Z,49.89
2023-06-16T03:23:30.969Z,52.17
2023-06-16T03:25:59.727Z,53.63
2023-06-16T03:28:42.367Z,54.39
2023-06-16T03:31:11.996Z,54.92
2023-06-16T03:33:44.145Z,55.00
2023-06-16T03:36:13.207Z,52.49
2023-06-16T03:38:42.922Z,53.93
2023-06-16T03:41:10.187Z,54.34
2023-06-16T03:43:37.790Z,54.48
2023-06-16T03:46:05.146Z,54.66
2023-06-16T03:48:33.248Z,55.24
2023-06-16T03:51:03.055Z,53.98
2023-06-16T03:53:30.722Z,53.88
2023-06-16T03:55:59.223Z,54.87
2023-06-16T03:58:26.987Z,55.19
2023-06-16T04:00:54.171Z,55.39
2023-06-16T04:03:23.352Z,54.83
2023-06-16T04:05:51.074Z,54.07
2023-06-16T04:08:18.590Z,53.45
2023-06-16T04:10:45.878Z,52.96
2023-06-16T04:13:14.025Z,53.30
2023-06-16T04:15:43.660Z,50.27
2023-06-16T04:18:15.276Z,54.07
2023-06-16T04:20:42.554Z,53.12
2023-06-16T04:23:10.697Z,51.55
2023-06-16T04:25:39.410Z,50.66
2023-06-16T04:28:07.475Z,52.01
2023-06-16T04:30:34.806Z,50.81
2023-06-16T04:33:03.778Z,49.35
2023-06-16T04:35:35.073Z,47.31
2023-06-16T04:38:07.892Z,47.32
2023-06-16T04:40:37.597Z,47.19
2023-06-16T04:43:05.847Z,47.19
2023-06-16T04:45:33.717Z,47.99
2023-06-16T04:48:01.275Z,48.65
2023-06-16T04:50:30.068Z,48.19
2023-06-16T04:52:57.832Z,47.96
2023-06-16T04:55:25.230Z,47.12
2023-06-16T04:57:55.208Z,45.12
2023-06-16T05:00:22.881Z,45.11
2023-06-16T05:02:50.438Z,44.57
2023-06-16T05:05:19.932Z,44.70
2023-06-16T05:07:49.411Z,44.80
2023-06-16T05:10:17.061Z,44.55
2023-06-16T05:12:44.852Z,45.19
2023-06-16T05:15:12.062Z,43.91
2023-06-16T05:17:40.023Z,43.69
2023-06-16T05:20:09.420Z,42.95
2023-06-16T05:22:40.040Z,43.49
2023-06-16T05:25:08.547Z,43.59
2023-06-16T05:27:35.785Z,43.81
2023-06-16T05:30:03.849Z,44.15
2023-06-16T05:32:34.872Z,44.93
2023-06-16T05:35:04.809Z,44.63
2023-06-16T05:37:32.994Z,45.30
2023-06-16T05:40:03.019Z,44.28
2023-06-16T05:42:32.556Z,45.48
2023-06-16T05:45:00.140Z,43.76
2023-06-16T05:47:29.636Z,41.64
2023-06-16T05:49:58.579Z,41.60
2023-06-16T05:52:26.413Z,40.86
2023-06-16T05:54:53.926Z,41.45
2023-06-16T05:57:31.555Z,40.16
2023-06-16T05:59:58.783Z,38.49
2023-06-16T06:02:26.503Z,38.50
2023-06-16T06:04:54.388Z,38.44
2023-06-16T06:07:21.798Z,38.18
2023-06-16T06:09:49.985Z,38.22
2023-06-16T06:12:18.562Z,37.26
2023-06-16T06:14:45.719Z,37.38
2023-06-16T06:17:12.958Z,37.34
2023-06-16T06:19:40.218Z,36.74
2023-06-16T06:22:08.967Z,36.29
2023-06-16T06:24:38.745Z,34.70
2023-06-16T06:27:07.814Z,35.20
2023-06-16T06:29:35.000Z,34.70
2023-06-16T06:32:02.286Z,34.66
2023-06-16T06:34:29.514Z,34.46
2023-06-16T06:36:57.052Z,34.36
2023-06-16T06:39:24.211Z,34.55
2023-06-16T06:41:51.632Z,34.46
2023-06-16T06:44:24.234Z,33.44
2023-06-16T06:46:52.319Z,34.34
2023-06-16T06:49:21.838Z,34.00
2023-06-16T06:51:49.024Z,33.64
2023-06-16T06:54:16.220Z,33.79
2023-06-16T06:56:43.401Z,33.04
2023-06-16T06:59:10.561Z,33.84
2023-06-16T07:01:39.064Z,33.88
2023-06-16T07:04:06.583Z,33.70
2023-06-16T07:06:34.223Z,34.25
2023-06-16T07:09:01.786Z,33.41
2023-06-16T07:11:29.208Z,33.35
2023-06-16T07:13:56.422Z,33.32
2023-06-16T07:16:23.674Z,33.50
2023-06-16T07:18:51.614Z,33.62
2023-06-16T07:21:18.850Z,32.95
2023-06-16T07:23:46.125Z,32.78
2023-06-16T07:26:13.481Z,33.33
2023-06-16T07:28:42.265Z,33.99
2023-06-16T07:31:09.502Z,33.11
2023-06-16T07:33:36.805Z,32.45
2023-06-16T07:36:04.686Z,31.91
2023-06-16T07:38:31.971Z,32.34
2023-06-16T07:40:59.213Z,31.80
2023-06-16T07:43:26.470Z,30.86
2023-06-16T07:45:53.717Z,30.78
2023-06-16T07:48:20.959Z,30.90
2023-06-16T07:50:48.958Z,30.66
2023-06-16T07:53:17.108Z,31.28
2023-06-16T07:55:44.831Z,30.92
2023-06-16T07:58:12.054Z,30.38
2023-06-16T08:00:39.366Z,29.65
2023-06-16T08:03:07.692Z,30.09
2023-06-16T08:05:35.063Z,29.58
2023-06-16T08:08:02.900Z,29.53
2023-06-16T08:10:30.355Z,29.98
2023-06-16T08:12:57.763Z,30.78
2023-06-16T08:15:25.307Z,29.04
2023-06-16T08:17:52.763Z,28.34
2023-06-16T08:20:20.476Z,27.63
2023-06-16T08:22:48.043Z,27.88
2023-06-16T08:25:15.626Z,28.13
2023-06-16T08:27:42.869Z,28.56
2023-06-16T08:30:11.498Z,29.03
2023-06-16T08:32:40.130Z,28.96
2023-06-16T08:35:09.113Z,27.69
2023-06-16T08:37:37.135Z,28.67
2023-06-16T08:40:12.645Z,27.66
2023-06-16T08:42:42.365Z,28.31
2023-06-16T08:45:11.296Z,28.13
2023-06-16T08:47:41.540Z,27.54
2023-06-16T08:50:10.126Z,27.21
2023-06-16T08:52:44.472Z,27.09
2023-06-16T08:55:15.637Z,27.63
2023-06-16T08:57:48.707Z,28.01
2023-06-16T09:00:18.405Z,28.88
2023-06-16T09:02:57.964Z,29.28
2023-06-16T09:05:26.795Z,30.58
2023-06-16T09:07:54.551Z,30.37
2023-06-16T09:10:22.417Z,31.28
2023-06-16T09:12:54.417Z,31.76
2023-06-16T09:15:22.766Z,31.84
2023-06-16T09:17:51.177Z,31.68
2023-06-16T09:20:20.247Z,31.28
2023-06-16T09:22:58.166Z,31.02
2023-06-16T09:25:25.496Z,31.06
2023-06-16T09:27:54.217Z,31.35
2023-06-16T09:30:26.634Z,31.50
2023-06-16T09:32:59.333Z,30.96
2023-06-16T09:35:29.061Z,30.55
2023-06-16T09:38:01.946Z,30.59
2023-06-16T09:40:33.574Z,30.86
2023-06-16T09:43:05.280Z,30.19
2023-06-16T09:45:33.520Z,30.21
2023-06-16T09:48:05.529Z,30.10
2023-06-16T09:50:34.339Z,30.40
2023-06-16T09:53:06.231Z,30.18
2023-06-16T09:55:38.739Z,29.26
2023-06-16T09:58:06.547Z,29.25
2023-06-16T10:00:34.540Z,29.27
2023-06-16T10:03:03.664Z,29.19
2023-06-16T10:05:36.400Z,28.85
2023-06-16T10:08:05.885Z,29.30
2023-06-16T10:10:34.975Z,29.34
2023-06-16T10:13:07.436Z,29.09
2023-06-16T10:15:43.093Z,29.33
2023-06-16T10:18:14.306Z,29.16
2023-06-16T10:20:42.325Z,28.31
2023-06-16T10:23:10.622Z,28.76
2023-06-16T10:25:41.636Z,28.50
2023-06-16T10:28:14.910Z,28.79
2023-06-16T10:30:45.383Z,28.97
2023-06-16T10:33:25.645Z,28.67
2023-06-16T10:38:37.423Z,29.36
2023-06-16T10:41:07.622Z,29.85
2023-06-16T10:43:35.151Z,29.71
2023-06-16T10:46:20.103Z,29.49
2023-06-16T10:49:05.933Z,29.50
2023-06-16T10:52:05.967Z,28.86
2023-06-16T10:54:38.400Z,29.23
2023-06-16T11:00:26.674Z,28.07
2023-06-16T11:02:58.780Z,28.18
2023-06-16T11:05:40.293Z,27.98
2023-06-16T11:08:14.460Z,28.02
2023-06-16T11:11:04.454Z,28.69
2023-06-16T11:13:35.333Z,28.57
2023-06-16T11:16:03.884Z,28.80
2023-06-16T11:18:35.206Z,28.84
2023-06-16T11:21:13.479Z,29.03
2023-06-16T11:23:45.587Z,28.52
2023-06-16T11:26:16.941Z,29.14
2023-06-16T11:28:44.746Z,28.43
2023-06-16T11:31:13.710Z,28.60
2023-06-16T11:33:42.118Z,27.89
2023-06-16T11:36:19.710Z,27.84
2023-06-16T11:38:49.314Z,27.91
2023-06-16T11:41:21.324Z,27.29
2023-06-16T11:43:52.361Z,27.54
2023-06-16T11:46:24.519Z,26.65
2023-06-16T11:48:53.086Z,27.09
2023-06-16T11:51:21.161Z,27.85
2023-06-16T11:53:48.865Z,27.99
2023-06-16T11:56:18.233Z,27.92
2023-06-16T11:58:54.413Z,28.19
2023-06-16T12:01:25.789Z,28.87
2023-06-16T12:04:03.583Z,29.30
2023-06-16T12:06:33.840Z,28.93
2023-06-16T12:09:01.465Z,28.82
2023-06-16T12:11:32.264Z,29.38
2023-06-16T12:14:02.284Z,28.47
2023-06-16T12:16:29.894Z,28.65
2023-06-16T12:18:58.988Z,28.91
2023-06-16T12:21:29.459Z,29.16
2023-06-16T12:24:01.423Z,29.05
2023-06-16T12:26:33.431Z,29.37
2023-06-16T12:29:10.992Z,29.73
2023-06-16T12:31:56.795Z,30.28
2023-06-16T12:34:30.151Z,30.04
2023-06-16T12:37:07.643Z,30.45
2023-06-16T12:39:35.926Z,30.52
2023-06-16T12:42:06.700Z,30.27
2023-06-16T12:44:47.417Z,29.74
2023-06-16T12:47:16.438Z,29.54
2023-06-16T12:49:44.059Z,28.92
2023-06-16T12:52:13.321Z,29.23
2023-06-16T12:54:42.093Z,28.73
2023-06-16T12:57:10.556Z,29.78
2023-06-16T12:59:39.470Z,29.99
2023-06-16T13:02:07.250Z,29.92
2023-06-16T13:04:34.597Z,30.51
2023-06-16T13:07:01.942Z,30.89
2023-06-16T13:09:29.517Z,31.07
2023-06-16T13:11:58.685Z,30.41
2023-06-16T13:14:27.687Z,30.91
2023-06-16T13:16:56.765Z,30.90
2023-06-16T13:19:24.059Z,30.80
2023-06-16T13:21:51.301Z,30.15
2023-06-16T13:24:19.381Z,30.63
2023-06-16T13:26:46.809Z,31.06
2023-06-16T13:29:14.159Z,30.77
2023-06-16T13:31:41.368Z,30.68
2023-06-16T13:34:08.739Z,29.84
2023-06-16T13:36:36.091Z,29.56
2023-06-16T13:39:04.500Z,30.46
2023-06-16T13:41:32.069Z,29.89
2023-06-16T13:43:59.526Z,29.86
2023-06-16T13:46:26.883Z,29.98
2023-06-16T13:48:54.190Z,29.04
2023-06-16T13:51:21.535Z,28.99
2023-06-16T13:53:49.725Z,28.97
2023-06-16T13:56:16.996Z,28.83
2023-06-16T13:58:44.165Z,29.35
2023-06-16T14:01:11.429Z,29.36
2023-06-16T14:03:38.666Z,29.56
2023-06-16T14:06:05.986Z,29.29
2023-06-16T14:08:33.333Z,28.99
2023-06-16T14:11:02.458Z,29.71
2023-06-16T14:13:29.637Z,29.16
2023-06-16T14:15:56.990Z,28.83
2023-06-16T14:18:24.345Z,29.44
2023-06-16T14:20:51.809Z,29.03
2023-06-16T14:23:19.159Z,28.98
2023-06-16T14:25:46.827Z,28.49
2023-06-16T14:28:15.266Z,28.35
2023-06-16T14:30:42.917Z,27.85
2023-06-16T14:33:12.063Z,28.89
2023-06-16T14:35:40.153Z,28.80
2023-06-16T14:38:07.552Z,29.34
2023-06-16T14:40:36.700Z,29.24
2023-06-16T14:43:04.105Z,29.12
2023-06-16T14:45:31.685Z,28.53
2023-06-16T14:47:59.016Z,29.04
2023-06-16T14:50:26.300Z,28.25
2023-06-16T14:52:53.628Z,29.02
2023-06-16T14:55:21.129Z,29.74
2023-06-16T14:57:48.356Z,29.60
2023-06-16T15:00:15.988Z,30.03
2023-06-16T15:02:43.470Z,29.99
2023-06-16T15:05:10.784Z,29.96
2023-06-16T15:07:38.018Z,30.01
2023-06-16T15:10:05.646Z,29.38
2023-06-16T15:12:33.381Z,29.07
2023-06-16T15:15:00.926Z,29.21
2023-06-16T15:17:31.069Z,29.64
2023-06-16T15:19:58.303Z,29.43
2023-06-16T15:22:27.716Z,29.32
2023-06-16T15:24:54.904Z,28.98
2023-06-16T15:27:22.126Z,28.65
2023-06-16T15:29:49.319Z,27.28
2023-06-16T15:32:16.615Z,26.58
2023-06-16T15:34:43.894Z,26.17
2023-06-16T15:37:11.142Z,26.02
2023-06-16T15:39:38.341Z,25.37
2023-06-16T15:42:05.982Z,26.21
2023-06-16T15:44:33.772Z,26.36
2023-06-16T15:47:01.436Z,26.70
2023-06-16T15:49:28.674Z,25.98
2023-06-16T15:51:59.243Z,26.42
2023-06-16T15:54:26.570Z,26.25
2023-06-16T15:56:53.831Z,25.60
2023-06-16T15:59:21.080Z,24.85
2023-06-16T16:01:48.509Z,25.47
2023-06-16T16:04:16.170Z,25.31
2023-06-16T16:06:43.453Z,25.02
2023-06-16T16:09:11.246Z,25.63
2023-06-16T16:11:41.047Z,25.24
2023-06-16T16:14:09.161Z,25.32
2023-06-16T16:16:37.362Z,25.10
2023-06-16T16:19:04.780Z,25.49
2023-06-16T16:21:32.243Z,25.78
2023-06-16T16:23:59.526Z,26.49
2023-06-16T16:26:26.753Z,25.54
2023-06-16T16:28:54.032Z,26.50
2023-06-16T16:31:21.530Z,27.56
2023-06-16T16:33:48.884Z,29.15
2023-06-16T16:36:17.295Z,29.14
2023-06-16T16:38:44.567Z,29.23
2023-06-16T16:41:11.870Z,29.77
2023-06-16T16:43:39.130Z,29.58
2023-06-16T16:46:06.518Z,29.15
2023-06-16T16:48:33.808Z,28.43
2023-06-16T16:51:01.178Z,28.73
2023-06-16T16:53:46.824Z,29.78
2023-06-16T16:56:14.020Z,30.04
2023-06-16T16:58:41.294Z,30.19
2023-06-16T17:01:09.712Z,30.29
2023-06-16T17:03:37.411Z,30.61
2023-06-16T17:06:04.651Z,30.74
2023-06-16T17:08:31.930Z,30.94
2023-06-16T17:11:00.217Z,31.11
2023-06-16T17:13:27.365Z,31.14
2023-06-16T17:15:55.277Z,31.63
2023-06-16T17:18:22.695Z,31.77
2023-06-16T17:20:49.864Z,31.89
2023-06-16T17:23:17.054Z,31.77
2023-06-16T17:25:44.331Z,32.20
2023-06-16T17:28:11.631Z,32.14
2023-06-16T17:30:38.848Z,32.41
2023-06-16T17:33:06.049Z,32.44
2023-06-16T17:35:33.561Z,32.83
2023-06-16T17:38:03.072Z,33.08
2023-06-16T17:40:32.427Z,33.17
2023-06-16T17:43:02.010Z,33.19
2023-06-16T17:45:29.444Z,33.47
2023-06-16T17:47:56.896Z,33.71
2023-06-16T17:50:27.655Z,33.92
2023-06-16T17:52:55.132Z,33.94
2023-06-16T17:55:23.118Z,33.60
2023-06-16T17:57:50.421Z,34.18
2023-06-16T18:00:22.969Z,34.24
2023-06-16T18:02:50.694Z,34.58
2023-06-16T18:05:18.118Z,34.79
2023-06-16T18:07:45.667Z,34.77
2023-06-16T18:10:12.984Z,35.03
2023-06-16T18:12:40.315Z,34.92
2023-06-16T18:15:08.273Z,35.69
2023-06-16T18:17:36.321Z,35.52
2023-06-16T18:20:04.895Z,35.73
2023-06-16T18:22:36.152Z,36.06
2023-06-16T18:25:04.921Z,36.16
2023-06-16T18:27:35.666Z,36.03
2023-06-16T18:30:06.553Z,36.40
2023-06-16T18:32:37.575Z,37.54
2023-06-16T18:35:06.588Z,37.00
2023-06-16T18:37:45.077Z,36.81
2023-06-16T18:40:13.070Z,37.17
2023-06-16T18:42:40.839Z,37.66
2023-06-16T18:45:08.809Z,37.54
2023-06-16T18:47:37.287Z,37.90
2023-06-16T18:50:06.468Z,38.22
2023-06-16T18:52:34.645Z,38.42
2023-06-16T18:55:02.364Z,38.53
2023-06-16T18:57:38.504Z,39.42
2023-06-16T19:00:08.998Z,39.61
2023-06-16T19:02:36.948Z,39.27
2023-06-16T19:05:06.043Z,39.82
2023-06-16T19:07:36.631Z,39.52
2023-06-16T19:10:04.167Z,40.90
2023-06-16T19:12:33.055Z,40.36
2023-06-16T19:15:00.533Z,40.32
2023-06-16T19:17:27.893Z,40.68
2023-06-16T19:19:55.403Z,40.63
2023-06-16T19:22:22.719Z,40.79
2023-06-16T19:24:49.950Z,41.15
2023-06-16T19:27:17.210Z,41.63
2023-06-16T19:29:44.554Z,41.65
2023-06-16T19:32:11.804Z,42.37
2023-06-16T19:34:39.124Z,42.35
2023-06-16T19:37:06.889Z,42.31
2023-06-16T19:39:34.064Z,42.20
2023-06-16T19:42:01.239Z,42.65
2023-06-16T19:44:28.495Z,42.13
2023-06-16T19:46:55.848Z,42.96
2023-06-16T19:49:23.077Z,42.85
2023-06-16T19:51:51.176Z,43.28
2023-06-16T19:54:18.333Z,43.13
2023-06-16T19:56:45.495Z,43.46
2023-06-16T19:59:12.645Z,43.60
2023-06-16T20:01:40.226Z,43.54
2023-06-16T20:04:08.346Z,43.90
2023-06-16T20:06:35.902Z,44.04
2023-06-16T20:09:03.117Z,44.27
2023-06-16T20:11:30.264Z,44.11
2023-06-16T20:13:57.690Z,43.95
2023-06-16T20:16:26.531Z,44.00
2023-06-16T20:18:54.438Z,44.12
2023-06-16T20:21:22.098Z,44.26
2023-06-16T20:23:49.623Z,43.73
2023-06-16T20:26:17.827Z,43.65
2023-06-16T20:28:45.062Z,43.22
2023-06-16T20:31:12.501Z,43.19
2023-06-16T20:33:39.883Z,42.89
2023-06-16T20:36:08.438Z,43.73
2023-06-16T20:38:36.561Z,43.68
2023-06-16T20:41:04.967Z,43.21
2023-06-16T20:43:32.900Z,43.44
2023-06-16T20:46:01.055Z,43.73
2023-06-16T20:48:30.991Z,43.86
2023-06-16T20:50:58.516Z,43.92
2023-06-16T20:53:25.788Z,43.90
2023-06-16T20:55:53.155Z,44.45
2023-06-16T20:58:25.489Z,44.68
2023-06-16T21:00:56.256Z,44.86
2023-06-16T21:03:25.908Z,44.96
2023-06-16T21:05:53.690Z,44.86
2023-06-16T21:08:20.894Z,44.58
2023-06-16T21:10:48.075Z,44.81
2023-06-16T21:13:15.564Z,45.57
2023-06-16T21:15:45.455Z,45.70
2023-06-16T21:18:13.086Z,45.90
2023-06-16T21:20:40.369Z,46.10
2023-06-16T21:23:07.721Z,46.53
2023-06-16T21:25:34.928Z,46.66
2023-06-16T21:28:02.208Z,46.62
2023-06-16T21:30:29.404Z,47.83
2023-06-16T21:32:57.900Z,48.14
2023-06-16T21:35:26.291Z,48.58
2023-06-16T21:38:01.323Z,48.92
2023-06-16T21:40:29.894Z,48.77
2023-06-16T21:42:58.364Z,50.01
2023-06-16T21:45:25.848Z,51.59
2023-06-16T21:47:53.918Z,51.43
2023-06-16T21:50:21.307Z,52.68
2023-06-16T21:52:50.769Z,52.17
2023-06-16T21:55:18.107Z,51.20
2023-06-16T21:57:45.283Z,51.07
2023-06-16T22:00:13.258Z,50.67
2023-06-16T22:02:40.943Z,50.34
2023-06-16T22:05:10.639Z,51.64
2023-06-16T22:07:38.854Z,52.84
2023-06-16T22:10:07.772Z,51.30
2023-06-16T22:12:38.061Z,53.32
2023-06-16T22:15:06.241Z,55.37
2023-06-16T22:17:35.312Z,55.37
2023-06-16T22:20:05.831Z,53.52
2023-06-16T22:22:36.236Z,52.69
2023-06-16T22:25:03.678Z,52.36
2023-06-16T22:27:31.896Z,51.94
2023-06-16T22:30:00.496Z,51.67
2023-06-16T22:32:29.068Z,51.43
2023-06-16T22:34:56.481Z,51.30
2023-06-16T22:37:23.826Z,53.09
2023-06-16T22:39:52.331Z,52.84
2023-06-16T22:42:19.672Z,52.79
2023-06-16T22:44:47.058Z,53.43
2023-06-16T22:47:14.285Z,54.61
2023-06-16T22:49:41.646Z,56.23
2023-06-16T22:52:09.662Z,57.13
2023-06-16T22:54:37.293Z,57.45
2023-06-16T22:57:04.721Z,58.19
2023-06-16T22:59:32.008Z,58.90
2023-06-16T23:01:59.426Z,59.01
2023-06-16T23:04:26.669Z,59.74
2023-06-16T23:06:54.362Z,60.89
2023-06-16T23:09:21.633Z,59.30
2023-06-16T23:11:48.907Z,57.93
2023-06-16T23:14:16.249Z,57.09
2023-06-16T23:16:43.551Z,57.08
2023-06-16T23:19:12.604Z,55.94
2023-06-16T23:21:40.745Z,57.14
2023-06-16T23:24:08.034Z,59.36
2023-06-16T23:26:35.504Z,61.09
2023-06-16T23:29:06.063Z,59.08
2023-06-16T23:31:35.458Z,59.58
2023-06-16T23:34:04.273Z,58.56
2023-06-16T23:36:32.706Z,57.86
2023-06-16T23:39:01.945Z,57.45
2023-06-16T23:41:29.551Z,57.59
2023-06-16T23:44:01.402Z,57.71
2023-06-16T23:46:29.071Z,56.90
2023-06-16T23:48:56.614Z,56.75
2023-06-16T23:51:24.079Z,56.65
2023-06-16T23:53:51.803Z,56.98
2023-06-16T23:56:19.726Z,57.13
2023-06-16T23:58:47.474Z,57.54
